Time;durP1;ratioP1;P1;durP2;ratioP2;P2;SDS_P1;SDS_P2;PMS_P1;PMS_P2;Temp;Humidity;BMP_temperature;BMP_pressure;BME280_temperature;BME280_humidity;BME280_pressure;Samples;Min_cycle;Max_cycle;Signal;HPM_P1;HPM_P2
2023/12/26 00:01:36;;;;;;;12.27;6.60;;;;;;;;;;5026306;28;19909;-77
2023/12/26 00:04:02;;;;;;;;;;;;;;;;;;5026786;28;20071;-76
2023/12/26 00:06:27;;;;;;;11.70;6.90;;;;;;;;;;5014507;28;19909;-76
2023/12/26 00:08:53;;;;;;;12.10;7.57;;;;;;;;;;4999040;28;20025;-76
2023/12/26 00:11:18;;;;;;;;;;;;;;;;;;5032672;28;20064;-78
2023/12/26 00:13:44;;;;;;;15.23;7.45;;;;;;;;;;5014888;28;19952;-78
2023/12/26 00:16:09;;;;;;;;;;;;;;;;;;5012333;28;20084;-78
2023/12/26 00:18:34;;;;;;;12.43;6.60;;;;;;;;;;5031935;28;20015;-78
2023/12/26 00:21:00;;;;;;;;;;;;;;;;;;5018598;28;20059;-78
2023/12/26 00:23:26;;;;;;;13.45;7.00;;;;;;;;;;5028877;28;20011;-78
2023/12/26 00:25:52;;;;;;;;;;;;;;;;;;5029018;28;20044;-76
2023/12/26 00:28:19;;;;;;;14.00;7.93;;;;;;;;;;5028644;28;20307;-76
2023/12/26 00:30:44;;;;;;;14.52;7.40;;;;;;;;;;5032178;28;20025;-76
2023/12/26 00:33:10;;;;;;;16.40;7.07;;;;;;;;;;5013839;28;20029;-76
2023/12/26 00:35:36;;;;;;;13.27;6.88;;;;;;;;;;4993371;28;20128;-77
2023/12/26 00:38:01;;;;;;;;;;;;;;;;;;5014216;28;20488;-77
2023/12/26 00:40:27;;;;;;;12.45;6.43;;;;;;;;;;4995575;28;20000;-77
2023/12/26 00:42:53;;;;;;;13.45;6.82;;;;;;;;;;4994102;28;20083;-77
2023/12/26 00:45:22;;;;;;;12.70;6.97;;;;;;;;;;5010506;28;20040;-76
2023/12/26 00:47:48;;;;;;;16.65;7.90;;;;;;;;;;5003015;28;20116;-77
2023/12/26 00:50:16;;;;;;;13.50;7.10;;;;;;;;;;5013499;28;20112;-78
2023/12/26 00:52:43;;;;;;;11.57;6.60;;;;;;;;;;5014033;28;20038;-78
2023/12/26 00:55:08;;;;;;;11.68;6.72;;;;;;;;;;4996069;28;20116;-78
2023/12/26 00:57:34;;;;;;;12.18;6.65;;;;;;;;;;5012867;28;20116;-78
2023/12/26 01:00:00;;;;;;;11.30;5.53;;;;;;;;;;5014230;28;20160;-78
2023/12/26 01:02:26;;;;;;;12.13;5.80;;;;;;;;;;4994378;28;20033;-77
2023/12/26 01:04:51;;;;;;;12.85;5.90;;;;;;;;;;5027485;28;20492;-77
2023/12/26 01:07:17;;;;;;;;;;;;;;;;;;4997287;28;20036;-76
2023/12/26 01:09:42;;;;;;;11.40;5.15;;;;;;;;;;5029779;28;19921;-78
2023/12/26 01:12:08;;;;;;;12.65;5.45;;;;;;;;;;4994381;28;20095;-76
2023/12/26 01:14:35;;;;;;;11.07;5.15;;;;;;;;;;5012974;28;20045;-77
2023/12/26 01:17:00;;;;;;;12.52;4.40;;;;;;;;;;5028783;28;20040;-77
2023/12/26 01:19:26;;;;;;;11.90;5.20;;;;;;;;;;5011472;28;20029;-77
2023/12/26 01:21:51;;;;;;;;;;;;;;;;;;4995990;28;20033;-79
2023/12/26 01:24:17;;;;;;;11.93;4.72;;;;;;;;;;5030848;28;19955;-76
2023/12/26 01:26:42;;;;;;;8.90;4.07;;;;;;;;;;4996090;28;20036;-76
2023/12/26 01:29:08;;;;;;;;;;;;;;;;;;5013530;28;20120;-77
2023/12/26 01:31:34;;;;;;;9.60;3.92;;;;;;;;;;5012601;28;19913;-77
2023/12/26 01:33:59;;;;;;;8.52;3.95;;;;;;;;;;4997138;28;20026;-77
2023/12/26 01:36:25;;;;;;;5.88;3.45;;;;;;;;;;5030361;28;20061;-77
2023/12/26 01:38:51;;;;;;;7.63;3.50;;;;;;;;;;5031120;28;20056;-77
2023/12/26 01:41:17;;;;;;;7.82;3.65;;;;;;;;;;5030659;28;20079;-78
2023/12/26 01:43:43;;;;;;;;;;;;;;;;;;4987590;28;20038;-77
2023/12/26 01:46:08;;;;;;;8.13;4.15;;;;;;;;;;5010531;28;19967;-78
2023/12/26 01:48:34;;;;;;;9.77;4.28;;;;;;;;;;4981384;28;20029;-78
2023/12/26 01:51:00;;;;;;;;;;;;;;;;;;5021766;28;20040;-77
2023/12/26 01:53:26;;;;;;;8.90;3.22;;;;;;;;;;5013145;28;19959;-78
2023/12/26 01:55:51;;;;;;;;;;;;;;;;;;5009427;28;20053;-78
2023/12/26 01:58:17;;;;;;;8.57;4.32;;;;;;;;;;5005974;28;19909;-78
2023/12/26 02:00:42;;;;;;;;;;;;;;;;;;4996680;28;20026;-77
2023/12/26 02:03:08;;;;;;;6.40;2.60;;;;;;;;;;5022683;28;19913;-78
2023/12/26 02:05:33;;;;;;;7.18;2.53;;;;;;;;;;5013049;28;20037;-77
2023/12/26 02:07:58;;;;;;;;;;;;;;;;;;5003062;28;20481;-77
2023/12/26 02:10:24;;;;;;;4.78;2.05;;;;;;;;;;4988437;28;19921;-78
2023/12/26 02:12:49;;;;;;;;;;;;;;;;;;4986686;28;20038;-77
2023/12/26 02:15:15;;;;;;;5.57;2.65;;;;;;;;;;5009681;28;19917;-78
2023/12/26 02:17:41;;;;;;;4.57;2.13;;;;;;;;;;4993380;28;20041;-77
2023/12/26 02:20:07;;;;;;;4.43;1.67;;;;;;;;;;4990497;28;20072;-77
2023/12/26 02:22:34;;;;;;;3.53;1.63;;;;;;;;;;4986473;28;20061;-78
2023/12/26 02:25:00;;;;;;;4.43;1.40;;;;;;;;;;5008808;28;20117;-77
2023/12/26 02:27:29;;;;;;;3.63;1.70;;;;;;;;;;4988962;28;20112;-77
2023/12/26 02:29:54;;;;;;;4.25;1.50;;;;;;;;;;5010899;28;20080;-77
2023/12/26 02:32:21;;;;;;;3.03;1.52;;;;;;;;;;4999424;28;20034;-78
2023/12/26 02:34:47;;;;;;;3.17;1.38;;;;;;;;;;4996107;28;20160;-76
2023/12/26 02:37:12;;;;;;;;;;;;;;;;;;4992005;28;20061;-78
2023/12/26 02:39:39;;;;;;;2.95;1.33;;;;;;;;;;5013028;28;19915;-78
2023/12/26 02:42:05;;;;;;;5.07;1.30;;;;;;;;;;5012814;28;20038;-77
2023/12/26 02:44:31;;;;;;;3.22;1.30;;;;;;;;;;5013197;28;20575;-77
2023/12/26 02:46:56;;;;;;;;;;;;;;;;;;5013316;28;20037;-77
2023/12/26 02:49:22;;;;;;;2.17;1.20;;;;;;;;;;5008498;28;20308;-78
2023/12/26 02:51:48;;;;;;;3.60;1.30;;;;;;;;;;5012570;28;20026;-77
2023/12/26 02:54:13;;;;;;;2.08;1.15;;;;;;;;;;5005289;28;20366;-78
2023/12/26 02:56:39;;;;;;;3.75;1.10;;;;;;;;;;4995527;28;20109;-77
2023/12/26 02:59:05;;;;;;;2.78;1.10;;;;;;;;;;5010033;28;20037;-77
2023/12/26 03:01:30;;;;;;;1.73;1.02;;;;;;;;;;4996358;28;20040;-77
2023/12/26 03:03:55;;;;;;;1.20;1.00;;;;;;;;;;5012205;28;20428;-77
2023/12/26 03:06:23;;;;;;;1.83;1.00;;;;;;;;;;4993419;28;20029;-77
2023/12/26 03:08:48;;;;;;;2.35;1.00;;;;;;;;;;5014692;28;20030;-78
2023/12/26 03:11:14;;;;;;;;;;;;;;;;;;5009483;28;20514;-77
2023/12/26 03:13:39;;;;;;;2.90;1.10;;;;;;;;;;5025759;28;19920;-77
2023/12/26 03:16:05;;;;;;;2.90;1.10;;;;;;;;;;4989162;28;20079;-77
2023/12/26 03:18:30;;;;;;;;;;;;;;;;;;5032243;28;20037;-78
2023/12/26 03:20:56;;;;;;;1.70;1.10;;;;;;;;;;5001581;28;20329;-77
2023/12/26 03:23:21;;;;;;;;;;;;;;;;;;5022148;28;20500;-77
2023/12/26 03:25:46;;;;;;;2.92;1.00;;;;;;;;;;5031554;28;20281;-77
2023/12/26 03:28:12;;;;;;;3.50;1.20;;;;;;;;;;5031357;28;20484;-77
2023/12/26 03:30:38;;;;;;;1.83;1.13;;;;;;;;;;4997701;28;20033;-77
2023/12/26 03:33:06;;;;;;;2.40;1.08;;;;;;;;;;5033859;28;20129;-78
2023/12/26 03:35:31;;;;;;;;;;;;;;;;;;5013536;28;20116;-77
2023/12/26 03:37:57;;;;;;;3.78;1.10;;;;;;;;;;5032948;28;19913;-77
2023/12/26 03:40:22;;;;;;;;;;;;;;;;;;5012192;28;20427;-77
2023/12/26 03:42:47;;;;;;;1.88;0.90;;;;;;;;;;5015367;28;19917;-77
2023/12/26 03:45:15;;;;;;;2.10;1.20;;;;;;;;;;5015533;28;20021;-77
2023/12/26 03:47:40;;;;;;;;;;;;;;;;;;5015582;28;20026;-78
2023/12/26 03:50:07;;;;;;;2.42;1.10;;;;;;;;;;5030551;28;20379;-78
2023/12/26 03:52:34;;;;;;;2.35;1.10;;;;;;;;;;5031672;28;20095;-78
2023/12/26 03:54:59;;;;;;;2.38;1.45;;;;;;;;;;5022156;28;20424;-77
2023/12/26 03:57:25;;;;;;;1.98;1.48;;;;;;;;;;5031696;28;20132;-77
2023/12/26 03:59:50;;;;;;;;;;;;;;;;;;4990276;28;20087;-77
2023/12/26 04:02:16;;;;;;;1.30;0.82;;;;;;;;;;5006580;28;19924;-78
2023/12/26 04:04:41;;;;;;;2.15;1.08;;;;;;;;;;4998408;28;20025;-77
2023/12/26 04:07:08;;;;;;;1.73;0.98;;;;;;;;;;5021281;28;20407;-77
2023/12/26 04:09:34;;;;;;;2.45;1.00;;;;;;;;;;4993183;28;20065;-77
2023/12/26 04:12:00;;;;;;;1.20;0.90;;;;;;;;;;5014811;28;20053;-79
2023/12/26 04:14:25;;;;;;;2.55;1.00;;;;;;;;;;5017890;28;20037;-76
2023/12/26 04:16:50;;;;;;;;;;;;;;;;;;5014976;28;20460;-77
2023/12/26 04:19:16;;;;;;;3.55;0.90;;;;;;;;;;5029684;28;19909;-77
2023/12/26 04:21:42;;;;;;;;;;;;;;;;;;5013633;28;20029;-78
2023/12/26 04:24:08;;;;;;;2.35;0.90;;;;;;;;;;5010510;28;19913;-78
2023/12/26 04:26:35;;;;;;;1.75;0.98;;;;;;;;;;5014556;28;20127;-78
2023/12/26 04:29:00;;;;;;;1.70;0.98;;;;;;;;;;5013498;28;20034;-77
2023/12/26 04:31:26;;;;;;;2.35;1.10;;;;;;;;;;4995015;28;20037;-78
2023/12/26 04:33:51;;;;;;;3.28;1.17;;;;;;;;;;5010959;28;20494;-77
2023/12/26 04:36:17;;;;;;;1.70;1.00;;;;;;;;;;4982188;28;20033;-78
2023/12/26 04:38:42;;;;;;;;;;;;;;;;;;4987062;28;20032;-78
2023/12/26 04:41:11;;;;;;;1.40;0.90;;;;;;;;;;5024126;28;20376;-78
2023/12/26 04:43:37;;;;;;;2.35;1.00;;;;;;;;;;4987516;28;20120;-76
2023/12/26 04:46:18;;;;;;;2.20;1.20;;;;;;;;;;5061327;27;20481;-79
2023/12/26 04:48:44;;;;;;;2.00;1.27;;;;;;;;;;5047750;28;20280;-78
2023/12/26 04:51:14;;;;;;;1.88;1.00;;;;;;;;;;5011932;28;20100;-77
2023/12/26 04:53:40;;;;;;;2.38;1.20;;;;;;;;;;5025465;28;20053;-78
2023/12/26 04:56:07;;;;;;;3.42;1.40;;;;;;;;;;5046473;28;20067;-78
2023/12/26 04:58:32;;;;;;;1.77;1.27;;;;;;;;;;5015003;28;20043;-77
2023/12/26 05:00:59;;;;;;;2.33;1.20;;;;;;;;;;5038048;28;20024;-78
2023/12/26 05:03:24;;;;;;;1.60;1.08;;;;;;;;;;5047898;28;20032;-78
2023/12/26 05:05:51;;;;;;;1.67;0.90;;;;;;;;;;5026646;28;20029;-78
2023/12/26 05:08:16;;;;;;;4.15;0.90;;;;;;;;;;5050629;28;20079;-78
2023/12/26 05:10:42;;;;;;;3.63;0.90;;;;;;;;;;5046557;28;20064;-80
2023/12/26 05:13:08;;;;;;;0.75;0.70;;;;;;;;;;5043363;28;20061;-78
2023/12/26 05:15:34;;;;;;;1.10;0.85;;;;;;;;;;5043637;28;20063;-78
2023/12/26 05:18:03;;;;;;;3.00;1.90;;;;;;;;;;5030869;28;20481;-78
2023/12/26 05:20:29;;;;;;;1.88;1.10;;;;;;;;;;5029812;28;20136;-79
2023/12/26 05:22:54;;;;;;;1.52;0.90;;;;;;;;;;5030919;28;20147;-78
2023/12/26 05:25:23;;;;;;;2.03;0.90;;;;;;;;;;5048086;28;20032;-79
2023/12/26 05:27:48;;;;;;;2.33;0.90;;;;;;;;;;5047631;28;20078;-79
2023/12/26 05:30:14;;;;;;;1.08;0.88;;;;;;;;;;5027837;28;20434;-79
2023/12/26 05:32:40;;;;;;;3.17;1.20;;;;;;;;;;5034311;28;20041;-79
2023/12/26 05:35:06;;;;;;;1.75;1.00;;;;;;;;;;5030007;28;20099;-78
2023/12/26 05:37:31;;;;;;;1.95;1.30;;;;;;;;;;5033632;28;20135;-79
2023/12/26 05:39:57;;;;;;;;;;;;;;;;;;5050977;28;20029;-78
2023/12/26 05:42:23;;;;;;;2.42;1.50;;;;;;;;;;5046126;28;19968;-78
2023/12/26 05:44:49;;;;;;;;;;;;;;;;;;5051308;28;20386;-77
2023/12/26 05:47:14;;;;;;;2.25;1.02;;;;;;;;;;5053669;28;20364;-78
2023/12/26 05:49:40;;;;;;;1.75;1.00;;;;;;;;;;5031603;28;20040;-78
2023/12/26 05:52:06;;;;;;;4.13;1.58;;;;;;;;;;5044006;28;20048;-79
2023/12/26 05:54:32;;;;;;;2.67;1.48;;;;;;;;;;5028818;28;20506;-77
2023/12/26 05:56:57;;;;;;;;;;;;;;;;;;5036795;28;20041;-78
2023/12/26 05:59:23;;;;;;;4.63;1.63;;;;;;;;;;5033420;28;20370;-78
2023/12/26 06:01:48;;;;;;;;;;;;;;;;;;5031695;28;20034;-78
2023/12/26 06:04:14;;;;;;;3.47;1.30;;;;;;;;;;5033635;28;19912;-78
2023/12/26 06:06:40;;;;;;;3.55;1.48;;;;;;;;;;5015417;28;20033;-78
2023/12/26 06:09:05;;;;;;;2.50;1.20;;;;;;;;;;5031866;28;20038;-78
2023/12/26 06:11:31;;;;;;;;;;;;;;;;;;5015119;28;20040;-78
2023/12/26 06:13:57;;;;;;;2.47;1.08;;;;;;;;;;5019611;28;19916;-77
2023/12/26 06:16:23;;;;;;;4.25;1.13;;;;;;;;;;5016085;28;20037;-78
2023/12/26 06:18:48;;;;;;;;;;;;;;;;;;5032371;28;20109;-78
2023/12/26 06:21:14;;;;;;;1.40;0.88;;;;;;;;;;5033990;28;20298;-78
2023/12/26 06:23:39;;;;;;;1.60;1.00;;;;;;;;;;5033025;28;20029;-78
2023/12/26 06:26:05;;;;;;;;;;;;;;;;;;5026282;28;20038;-79
2023/12/26 06:28:31;;;;;;;2.38;0.80;;;;;;;;;;5032075;28;19909;-79
2023/12/26 06:30:57;;;;;;;2.05;0.95;;;;;;;;;;5031209;28;20037;-79
2023/12/26 06:33:22;;;;;;;;;;;;;;;;;;5031184;28;20495;-79
2023/12/26 06:35:49;;;;;;;2.42;0.85;;;;;;;;;;5032113;28;19913;-79
2023/12/26 06:38:15;;;;;;;1.67;1.00;;;;;;;;;;5031213;28;20029;-79
2023/12/26 06:40:40;;;;;;;2.22;0.90;;;;;;;;;;5032502;28;20033;-79
2023/12/26 06:43:07;;;;;;;1.55;0.75;;;;;;;;;;5011241;28;20033;-78
2023/12/26 06:45:32;;;;;;;2.67;0.95;;;;;;;;;;4996925;28;20520;-78
2023/12/26 06:47:58;;;;;;;;;;;;;;;;;;5031504;28;20091;-78
2023/12/26 06:50:23;;;;;;;0.90;0.70;;;;;;;;;;5014100;28;19917;-79
2023/12/26 06:52:49;;;;;;;1.23;0.82;;;;;;;;;;5021996;28;20500;-79
2023/12/26 06:55:15;;;;;;;1.45;0.80;;;;;;;;;;4995970;28;20045;-79
2023/12/26 06:57:40;;;;;;;1.63;0.93;;;;;;;;;;5017748;28;20049;-79
2023/12/26 07:00:06;;;;;;;1.63;0.90;;;;;;;;;;5031241;28;20042;-79
2023/12/26 07:02:32;;;;;;;1.10;0.75;;;;;;;;;;5039912;28;20555;-80
2023/12/26 07:04:58;;;;;;;1.70;0.93;;;;;;;;;;5032084;28;20160;-79
2023/12/26 07:07:23;;;;;;;0.90;0.80;;;;;;;;;;5017666;28;20057;-79
2023/12/26 07:09:49;;;;;;;2.92;0.90;;;;;;;;;;5013645;28;20034;-79
2023/12/26 07:12:14;;;;;;;1.95;1.00;;;;;;;;;;5041653;28;20044;-79
2023/12/26 07:14:40;;;;;;;2.22;1.27;;;;;;;;;;5030556;28;20044;-79
2023/12/26 07:17:05;;;;;;;2.20;1.40;;;;;;;;;;5030751;28;20040;-79
2023/12/26 07:19:31;;;;;;;;;;;;;;;;;;5031782;28;20456;-78
2023/12/26 07:21:56;;;;;;;1.30;0.80;;;;;;;;;;5030247;28;19913;-79
2023/12/26 07:24:22;;;;;;;2.35;0.90;;;;;;;;;;5033793;28;20037;-79
2023/12/26 07:26:47;;;;;;;1.67;1.10;;;;;;;;;;5030625;28;20438;-78
2023/12/26 07:29:13;;;;;;;2.55;1.00;;;;;;;;;;5029938;28;20040;-78
2023/12/26 07:31:39;;;;;;;;;;;;;;;;;;5031719;28;20030;-78
2023/12/26 07:34:08;;;;;;;2.00;1.10;;;;;;;;;;5031649;28;19958;-80
2023/12/26 07:36:34;;;;;;;1.85;1.00;;;;;;;;;;5031996;28;20108;-79
2023/12/26 07:38:59;;;;;;;;;;;;;;;;;;5034291;28;20037;-79
2023/12/26 07:41:25;;;;;;;3.00;1.30;;;;;;;;;;5035091;28;19909;-79
2023/12/26 07:43:52;;;;;;;2.80;1.00;;;;;;;;;;5028998;28;20492;-79
2023/12/26 07:46:18;;;;;;;2.65;1.00;;;;;;;;;;5029784;28;20092;-79
2023/12/26 07:48:43;;;;;;;2.15;1.00;;;;;;;;;;5030776;28;20049;-78
2023/12/26 07:51:12;;;;;;;0.95;0.77;;;;;;;;;;5031291;28;20044;-79
2023/12/26 07:53:37;;;;;;;1.15;0.90;;;;;;;;;;5030828;28;20187;-78
2023/12/26 07:56:03;;;;;;;;;;;;;;;;;;5012751;28;20619;-79
2023/12/26 07:58:28;;;;;;;2.78;1.00;;;;;;;;;;5024927;28;19921;-78
2023/12/26 08:00:54;;;;;;;1.52;1.00;;;;;;;;;;5029441;28;20028;-78
2023/12/26 08:03:19;;;;;;;1.40;0.90;;;;;;;;;;5013649;28;20045;-78
2023/12/26 08:05:45;;;;;;;2.05;1.10;;;;;;;;;;5044394;28;20057;-78
2023/12/26 08:08:11;;;;;;;1.70;1.08;;;;;;;;;;5031448;28;20044;-79
2023/12/26 08:10:36;;;;;;;1.02;0.90;;;;;;;;;;5015754;28;20032;-79
2023/12/26 08:13:02;;;;;;;1.45;1.02;;;;;;;;;;5030197;28;20446;-80
2023/12/26 08:15:27;;;;;;;2.67;0.98;;;;;;;;;;5028695;28;20105;-78
2023/12/26 08:17:53;;;;;;;;;;;;;;;;;;5014335;28;20045;-78
2023/12/26 08:20:18;;;;;;;4.28;1.20;;;;;;;;;;5032901;28;19913;-78
2023/12/26 08:22:44;;;;;;;1.63;1.13;;;;;;;;;;5030778;28;20037;-79
2023/12/26 08:25:09;;;;;;;1.50;1.10;;;;;;;;;;5029000;28;20075;-78
2023/12/26 08:27:36;;;;;;;1.83;1.10;;;;;;;;;;5030520;28;20087;-79
2023/12/26 08:30:02;;;;;;;1.38;1.00;;;;;;;;;;5028736;28;20033;-79
2023/12/26 08:32:28;;;;;;;2.35;1.02;;;;;;;;;;5014149;28;20040;-80
2023/12/26 08:34:53;;;;;;;2.80;1.17;;;;;;;;;;5030090;28;20492;-79
2023/12/26 08:37:19;;;;;;;;;;;;;;;;;;5030704;28;20467;-80
2023/12/26 08:39:45;;;;;;;1.50;0.88;;;;;;;;;;5032278;28;19998;-79
2023/12/26 08:42:10;;;;;;;1.90;1.17;;;;;;;;;;5030129;28;20053;-79
2023/12/26 08:44:35;;;;;;;;;;;;;;;;;;5029123;28;20412;-79
2023/12/26 08:47:04;;;;;;;1.98;1.10;;;;;;;;;;5028823;28;19924;-79
2023/12/26 08:49:30;;;;;;;1.90;1.20;;;;;;;;;;5019554;28;20064;-80
2023/12/26 08:51:55;;;;;;;2.55;1.38;;;;;;;;;;5030405;28;20053;-78
2023/12/26 08:54:21;;;;;;;1.90;1.10;;;;;;;;;;5035046;28;20111;-78
2023/12/26 08:56:46;;;;;;;;;;;;;;;;;;5043506;28;20041;-79
2023/12/26 08:59:12;;;;;;;2.35;1.20;;;;;;;;;;5046244;28;20353;-78
2023/12/26 09:01:37;;;;;;;1.42;1.05;;;;;;;;;;5034553;28;20060;-79
2023/12/26 09:04:03;;;;;;;2.10;1.50;;;;;;;;;;5031384;28;20025;-79
2023/12/26 09:06:28;;;;;;;;;;;;;;;;;;5029508;28;20037;-79
2023/12/26 09:08:54;;;;;;;1.48;0.98;;;;;;;;;;5037246;28;20428;-79
2023/12/26 09:11:20;;;;;;;2.42;1.20;;;;;;;;;;5029260;28;20029;-78
2023/12/26 09:13:45;;;;;;;2.17;1.48;;;;;;;;;;5012542;28;20621;-77
2023/12/26 09:16:10;;;;;;;;;;;;;;;;;;5029069;28;20033;-79
2023/12/26 09:18:36;;;;;;;2.92;1.48;;;;;;;;;;5028338;28;19944;-79
2023/12/26 09:21:02;;;;;;;2.33;1.48;;;;;;;;;;5014946;28;20514;-79
2023/12/26 09:23:28;;;;;;;2.08;1.20;;;;;;;;;;5028592;28;20041;-79
2023/12/26 09:25:53;;;;;;;3.15;1.55;;;;;;;;;;5020441;28;20090;-78
2023/12/26 09:28:19;;;;;;;4.00;1.70;;;;;;;;;;5028459;28;20025;-79
2023/12/26 09:30:44;;;;;;;;;;;;;;;;;;5029056;28;20385;-79
2023/12/26 09:33:10;;;;;;;3.10;1.98;;;;;;;;;;5031768;28;20299;-79
2023/12/26 09:35:35;;;;;;;2.13;1.20;;;;;;;;;;5032143;28;20079;-79
2023/12/26 09:38:01;;;;;;;3.45;1.60;;;;;;;;;;5031728;28;20029;-79
2023/12/26 09:40:26;;;;;;;2.00;1.10;;;;;;;;;;5033131;28;20562;-79
2023/12/26 09:42:54;;;;;;;1.80;1.30;;;;;;;;;;5032428;28;20060;-78
2023/12/26 09:48:36;;;;;;;1.88;1.30;;;;;;;;;;5027589;28;20064;-79
2023/12/26 09:51:05;;;;;;;2.00;1.30;;;;;;;;;;5032244;28;20057;-79
2023/12/26 09:53:31;;;;;;;1.92;1.20;;;;;;;;;;5033354;28;20038;-78
2023/12/26 09:55:57;;;;;;;1.85;1.38;;;;;;;;;;5031754;28;20164;-78
2023/12/26 09:58:22;;;;;;;1.70;1.30;;;;;;;;;;5033727;28;20116;-79
2023/12/26 10:00:49;;;;;;;;;;;;;;;;;;5034498;28;20055;-78
2023/12/26 10:03:14;;;;;;;1.73;1.20;;;;;;;;;;5034459;28;19913;-79
2023/12/26 10:05:39;;;;;;;;;;;;;;;;;;5031180;28;20025;-79
2023/12/26 10:08:06;;;;;;;1.83;1.30;;;;;;;;;;5032841;28;19971;-77
2023/12/26 10:10:32;;;;;;;;;;;;;;;;;;5023070;28;20020;-79
2023/12/26 10:12:58;;;;;;;2.10;1.30;;;;;;;;;;5031988;28;19928;-78
2023/12/26 10:15:23;;;;;;;1.98;1.30;;;;;;;;;;5040883;28;20443;-78
2023/12/26 10:17:50;;;;;;;1.60;1.10;;;;;;;;;;5036539;28;20595;-78
2023/12/26 10:20:16;;;;;;;2.60;1.40;;;;;;;;;;5031438;28;20546;-79
2023/12/26 10:22:42;;;;;;;2.05;1.40;;;;;;;;;;5036514;28;20038;-79
2023/12/26 10:25:08;;;;;;;1.88;1.17;;;;;;;;;;5035247;28;20040;-78
2023/12/26 10:27:34;;;;;;;;;;;;;;;;;;5036435;28;20040;-79
2023/12/26 10:29:59;;;;;;;2.63;1.42;;;;;;;;;;5031100;28;20000;-79
2023/12/26 10:32:25;;;;;;;;;;;;;;;;;;5033048;28;20080;-79
2023/12/26 10:34:54;;;;;;;2.30;1.30;;;;;;;;;;5031415;28;19936;-79
2023/12/26 10:37:21;;;;;;;1.90;1.33;;;;;;;;;;5025814;28;20045;-78
2023/12/26 10:39:46;;;;;;;2.15;1.30;;;;;;;;;;5041147;28;20029;-78
2023/12/26 10:42:13;;;;;;;2.60;1.60;;;;;;;;;;5031078;28;20040;-78
2023/12/26 10:45:04;;;;;;;2.30;1.70;;;;;;;;;;5024241;28;20508;-79
2023/12/26 10:47:55;;;;;;;3.72;1.70;;;;;;;;;;5024364;28;20040;-78
2023/12/26 10:50:21;;;;;;;2.65;1.60;;;;;;;;;;5031933;28;20451;-78
2023/12/26 10:53:10;;;;;;;3.38;2.05;;;;;;;;;;5030599;28;20030;-80
2023/12/26 10:55:35;;;;;;;2.85;1.75;;;;;;;;;;5030333;28;20029;-79
2023/12/26 10:58:17;;;;;;;3.78;1.88;;;;;;;;;;5027601;28;20383;-78
2023/12/26 13:52:35;;;;;;;3.15;2.35;;;;;;;;;;5032567;28;20037;-79
2023/12/26 13:55:19;;;;;;;3.83;2.67;;;;;;;;;;5039217;28;20056;-79
2023/12/26 13:58:03;;;;;;;3.80;2.80;;;;;;;;;;5031782;28;20456;-79
2023/12/26 14:00:48;;;;;;;4.10;2.80;;;;;;;;;;5033700;28;20029;-79
2023/12/26 14:03:34;;;;;;;3.00;2.40;;;;;;;;;;5037306;28;20184;-79
2023/12/26 14:06:18;;;;;;;4.93;2.95;;;;;;;;;;5033145;28;20044;-80
2023/12/26 14:09:03;;;;;;;4.85;3.17;;;;;;;;;;5034231;28;20579;-79
2023/12/26 14:11:48;;;;;;;3.65;2.38;;;;;;;;;;5032877;28;20030;-79
2023/12/26 14:14:33;;;;;;;3.80;2.20;;;;;;;;;;5022236;28;20507;-79
2023/12/26 14:17:17;;;;;;;4.60;3.67;;;;;;;;;;5035581;28;20029;-79
2023/12/26 14:20:02;;;;;;;3.80;2.65;;;;;;;;;;5033292;28;20033;-79
2023/12/26 14:22:46;;;;;;;3.88;2.50;;;;;;;;;;5022708;28;20430;-79
2023/12/26 14:25:31;;;;;;;4.07;2.83;;;;;;;;;;5033033;28;20037;-80
2023/12/26 14:28:15;;;;;;;3.55;2.67;;;;;;;;;;5033155;28;20033;-79
2023/12/26 14:30:59;;;;;;;4.20;3.20;;;;;;;;;;5034353;28;20034;-81
2023/12/26 14:33:44;;;;;;;3.75;2.88;;;;;;;;;;5029625;28;20026;-79
2023/12/26 14:36:28;;;;;;;4.90;3.30;;;;;;;;;;5032306;28;20040;-78
2023/12/26 14:39:13;;;;;;;4.65;3.30;;;;;;;;;;5025583;28;20033;-79
2023/12/26 14:41:57;;;;;;;4.10;2.92;;;;;;;;;;5027456;28;20546;-80
2023/12/26 14:44:41;;;;;;;5.00;3.05;;;;;;;;;;5031696;28;20057;-79
2023/12/26 14:47:25;;;;;;;4.25;2.80;;;;;;;;;;5042514;28;20120;-80
2023/12/26 14:50:10;;;;;;;5.50;3.42;;;;;;;;;;5039496;28;20400;-78
2023/12/26 14:52:54;;;;;;;6.15;3.28;;;;;;;;;;5028360;28;20480;-77
2023/12/26 14:55:38;;;;;;;4.95;3.30;;;;;;;;;;5029393;28;20129;-79
2023/12/26 14:58:22;;;;;;;4.72;3.40;;;;;;;;;;5021215;28;20111;-78
2023/12/26 15:01:08;;;;;;;5.07;3.67;;;;;;;;;;5029118;28;20053;-80
2023/12/26 15:03:33;;;;;;;5.95;3.40;;;;;;;;;;5034958;28;20029;-78
2023/12/26 15:06:00;;;;;;;4.90;3.45;;;;;;;;;;5035071;28;20187;-79
2023/12/26 15:08:26;;;;;;;7.05;4.60;;;;;;;;;;5038513;28;20579;-78
2023/12/26 15:10:52;;;;;;;6.63;3.97;;;;;;;;;;5032022;28;20029;-79
2023/12/26 15:13:18;;;;;;;5.35;3.50;;;;;;;;;;5037400;28;20511;-79
2023/12/26 15:15:44;;;;;;;5.05;3.13;;;;;;;;;;5035976;28;20033;-78
2023/12/26 15:18:10;;;;;;;5.65;3.60;;;;;;;;;;5036601;28;20041;-78
2023/12/26 15:20:36;;;;;;;6.60;3.88;;;;;;;;;;5013599;28;20047;-78
2023/12/26 15:23:01;;;;;;;;;;;;;;;;;;5036302;28;20112;-79
2023/12/26 15:25:27;;;;;;;5.20;3.70;;;;;;;;;;5040246;28;19923;-79
2023/12/26 15:27:52;;;;;;;5.38;3.60;;;;;;;;;;5036357;28;20040;-79
2023/12/26 15:30:20;;;;;;;;;;;;;;;;;;5034946;28;20025;-79
2023/12/26 15:32:47;;;;;;;7.53;4.05;;;;;;;;;;5033562;28;19920;-79
2023/12/26 15:35:13;;;;;;;7.20;4.47;;;;;;;;;;5032828;28;20020;-79
2023/12/26 15:37:38;;;;;;;;;;;;;;;;;;5033024;28;20029;-78
2023/12/26 15:40:04;;;;;;;6.40;4.05;;;;;;;;;;5032117;28;19940;-81
2023/12/26 15:42:30;;;;;;;5.80;4.20;;;;;;;;;;5031303;28;20048;-80
2023/12/26 15:44:55;;;;;;;5.65;3.78;;;;;;;;;;5031639;28;20050;-79
2023/12/26 15:47:22;;;;;;;6.57;4.32;;;;;;;;;;5033626;28;20036;-81
2023/12/26 15:49:47;;;;;;;6.03;4.10;;;;;;;;;;5041230;28;20057;-80
2023/12/26 15:52:13;;;;;;;6.03;4.35;;;;;;;;;;5012726;28;20545;-80
2023/12/26 15:54:41;;;;;;;;;;;;;;;;;;5030649;28;20191;-79
2023/12/26 15:57:07;;;;;;;5.93;4.35;;;;;;;;;;5030885;28;20315;-78
2023/12/26 15:59:32;;;;;;;;;;;;;;;;;;5031850;28;20036;-78
2023/12/26 16:01:58;;;;;;;6.72;4.13;;;;;;;;;;5038760;28;19913;-79
2023/12/26 16:04:23;;;;;;;5.05;3.75;;;;;;;;;;5032019;28;20035;-79
2023/12/26 16:06:50;;;;;;;5.18;3.75;;;;;;;;;;5012336;28;20030;-79
2023/12/26 16:09:16;;;;;;;5.22;3.40;;;;;;;;;;5028051;28;20021;-79
2023/12/26 16:11:41;;;;;;;;;;;;;;;;;;5015405;28;20136;-80
2023/12/26 16:14:08;;;;;;;5.57;4.05;;;;;;;;;;5031667;28;19913;-79
2023/12/26 16:16:40;;;;;;;6.80;4.15;;;;;;;;;;5023007;28;20030;-80
2023/12/26 16:19:06;;;;;;;5.80;4.20;;;;;;;;;;5015892;28;20046;-79
2023/12/26 16:21:31;;;;;;;;;;;;;;;;;;5014376;28;20028;-79
2023/12/26 16:23:57;;;;;;;5.95;4.00;;;;;;;;;;5028325;28;20342;-79
2023/12/26 16:26:22;;;;;;;5.28;3.63;;;;;;;;;;5035403;28;20028;-79
2023/12/26 16:28:52;;;;;;;5.55;3.85;;;;;;;;;;5020754;28;20100;-80
2023/12/26 16:31:17;;;;;;;6.95;4.30;;;;;;;;;;5035239;28;20032;-79
2023/12/26 16:33:43;;;;;;;;;;;;;;;;;;5032225;28;20095;-79
2023/12/26 16:36:09;;;;;;;5.70;3.95;;;;;;;;;;5025941;28;19909;-79
2023/12/26 16:38:34;;;;;;;5.53;4.18;;;;;;;;;;5026405;28;20037;-80
2023/12/26 16:41:00;;;;;;;;;;;;;;;;;;5013881;28;20041;-79
2023/12/26 16:43:25;;;;;;;5.95;3.83;;;;;;;;;;5021997;28;19912;-80
2023/12/26 16:45:51;;;;;;;5.82;3.83;;;;;;;;;;5024829;28;20092;-79
2023/12/26 16:48:17;;;;;;;5.03;3.58;;;;;;;;;;5031702;28;20037;-80
2023/12/26 16:50:42;;;;;;;6.15;3.63;;;;;;;;;;5028145;28;20017;-79
2023/12/26 16:53:08;;;;;;;5.03;3.65;;;;;;;;;;5020873;28;20038;-80
2023/12/26 16:55:33;;;;;;;;;;;;;;;;;;5040244;28;20112;-79
2023/12/26 16:57:59;;;;;;;5.88;3.40;;;;;;;;;;5029824;28;20360;-80
2023/12/26 17:00:26;;;;;;;;;;;;;;;;;;5001216;28;20113;-80
2023/12/26 17:02:52;;;;;;;5.17;3.30;;;;;;;;;;5030220;28;19955;-80
2023/12/26 17:05:17;;;;;;;5.68;3.72;;;;;;;;;;5038030;28;20087;-78
2023/12/26 17:07:43;;;;;;;;;;;;;;;;;;5030199;28;20026;-79
2023/12/26 17:10:09;;;;;;;4.80;3.40;;;;;;;;;;5031348;28;19909;-78
2023/12/26 17:12:34;;;;;;;4.93;3.85;;;;;;;;;;5037368;28;20034;-80
2023/12/26 17:15:02;;;;;;;5.80;3.50;;;;;;;;;;5037811;28;20979;-79
2023/12/26 17:17:28;;;;;;;5.93;3.95;;;;;;;;;;5027050;28;20709;-79
2023/12/26 17:19:54;;;;;;;5.07;3.55;;;;;;;;;;5014651;28;20022;-80
2023/12/26 17:22:20;;;;;;;;;;;;;;;;;;5030784;28;20041;-81
2023/12/26 17:24:46;;;;;;;5.78;3.80;;;;;;;;;;5039147;28;19932;-79
2023/12/26 17:27:30;;;;;;;7.82;3.80;;;;;;;;;;5018292;28;20048;-79
2023/12/26 17:30:05;;;;;;;4.82;3.65;;;;;;;;;;5041766;28;20037;-78
2023/12/26 17:32:31;;;;;;;;;;;;;;;;;;5016245;28;20079;-79
2023/12/26 17:34:57;;;;;;;5.30;3.72;;;;;;;;;;5029523;28;19912;-79
2023/12/26 17:37:23;;;;;;;6.63;4.22;;;;;;;;;;5032129;28;20037;-79
2023/12/26 17:39:48;;;;;;;;;;;;;;;;;;5018258;28;20044;-79
2023/12/26 17:42:14;;;;;;;6.80;3.75;;;;;;;;;;5032788;28;19912;-79
2023/12/26 17:44:39;;;;;;;4.13;3.20;;;;;;;;;;5021786;28;20077;-79
2023/12/26 17:47:05;;;;;;;5.10;3.42;;;;;;;;;;5009362;28;20096;-80
2023/12/26 17:49:30;;;;;;;;;;;;;;;;;;5028240;28;20141;-80
2023/12/26 17:51:58;;;;;;;6.15;3.20;;;;;;;;;;5026025;28;19913;-79
2023/12/26 17:54:23;;;;;;;4.68;3.28;;;;;;;;;;5015860;28;20056;-79
2023/12/26 17:56:49;;;;;;;;;;;;;;;;;;5032943;28;20057;-79
2023/12/26 17:59:14;;;;;;;5.90;3.50;;;;;;;;;;5041558;28;19909;-79